Time;durP1;ratioP1;P1;durP2;ratioP2;P2;SDS_P1;SDS_P2;PMS_P1;PMS_P2;Temp;Humidity;BMP_temperature;BMP_pressure;BME280_temperature;BME280_humidity;BME280_pressure;Samples;Min_cycle;Max_cycle;Signal;HPM_P1;HPM_P2
2022/01/03 09:31:02;;;;;;;11.25;3.78;;;19.10;76.10;;;;;;5097005;28;20070;-50
2022/01/03 09:33:29;;;;;;;14.52;4.07;;;19.30;77.50;;;;;;5110799;28;20079;-48
2022/01/03 09:35:55;;;;;;;14.15;3.95;;;19.50;75.60;;;;;;5111252;28;20067;-48
2022/01/03 09:38:22;;;;;;;11.55;4.53;;;19.70;75.80;;;;;;5111243;28;20043;-50
2022/01/03 09:40:49;;;;;;;10.85;3.67;;;20.00;74.50;;;;;;4939134;28;69375;-50
2022/01/03 10:11:27;;;;;;;7.82;1.80;;;18.30;62.20;;;;;;5084964;27;20478;-71
2022/01/03 10:13:53;;;;;;;8.98;1.83;;;15.90;70.70;;;;;;5057191;28;20078;-76
2022/01/03 10:16:18;;;;;;;7.03;1.75;;;14.60;80.30;;;;;;5050845;28;20508;-77
2022/01/03 10:18:48;;;;;;;6.55;1.73;;;13.70;84.00;;;;;;5067743;28;20040;-76
2022/01/03 10:21:35;;;;;;;10.65;2.08;;;13.00;88.30;;;;;;5079571;28;20039;-75
2022/01/03 10:24:01;;;;;;;6.05;1.58;;;12.40;91.70;;;;;;5069456;28;20040;-75
2022/01/03 10:26:27;;;;;;;8.57;2.15;;;11.90;92.90;;;;;;5065580;28;20709;-75
2022/01/03 10:29:11;;;;;;;6.53;1.85;;;11.60;93.30;;;;;;5069475;28;20035;-75
2022/01/03 10:31:41;;;;;;;8.15;2.10;;;11.30;96.70;;;;;;5068581;28;20033;-73
2022/01/03 10:34:09;;;;;;;5.43;2.28;;;11.10;95.60;;;;;;5055430;28;20024;-67
2022/01/03 10:36:36;;;;;;;6.22;1.85;;;10.90;96.80;;;;;;5057606;28;20029;-67
2022/01/03 10:39:22;;;;;;;8.98;2.00;;;10.80;97.20;;;;;;5066231;28;20036;-67
2022/01/03 10:41:49;;;;;;;9.57;2.40;;;10.70;98.10;;;;;;5059096;28;20483;-67
2022/01/03 10:44:36;;;;;;;10.85;2.38;;;10.60;96.30;;;;;;5038439;28;20114;-68
2022/01/03 10:47:03;;;;;;;6.97;2.00;;;10.60;98.10;;;;;;5062204;28;20078;-67
2022/01/03 10:49:29;;;;;;;20.35;9.52;;;10.50;97.60;;;;;;5049908;28;20048;-67
2022/01/03 10:52:33;;;;;;;24.70;12.65;;;10.50;97.80;;;;;;5070047;28;20144;-67
2022/01/03 10:55:17;;;;;;;8.82;3.63;;;10.50;99.90;;;;;;5042572;28;20064;-67
2022/01/03 10:57:58;;;;;;;7.90;2.45;;;10.50;99.90;;;;;;5077972;28;20045;-67
2022/01/03 11:00:38;;;;;;;9.70;2.85;;;10.50;97.80;;;;;;5080799;28;20119;-66
2022/01/03 11:03:24;;;;;;;3.20;1.38;;;10.50;98.60;;;;;;5071673;28;20033;-67
2022/01/03 11:06:08;;;;;;;9.60;1.88;;;10.50;97.80;;;;;;5087824;28;20044;-66
2022/01/03 11:11:34;;;;;;;10.38;2.50;;;10.50;98.20;;;;;;5065216;28;20075;-67
2022/01/03 11:13:59;;;;;;;6.45;1.85;;;10.50;99.10;;;;;;5065770;28;20025;-67
2022/01/03 11:16:30;;;;;;;16.60;3.60;;;10.50;98.40;;;;;;5067319;28;20082;-67
2022/01/03 11:18:56;;;;;;;5.20;1.65;;;10.50;99.00;;;;;;5047332;28;20061;-66
2022/01/03 11:21:24;;;;;;;8.70;2.88;;;10.60;99.10;;;;;;5067767;28;20091;-68
2022/01/03 11:24:11;;;;;;;5.53;1.67;;;10.60;99.50;;;;;;5059109;28;20013;-66
2022/01/03 11:26:41;;;;;;;11.15;2.67;;;10.60;99.90;;;;;;5056593;28;20048;-65
2022/01/03 11:29:06;;;;;;;;;;;10.70;99.70;;;;;;5034756;28;20521;-70
2022/01/03 11:31:33;;;;;;;9.23;1.70;;;10.70;99.90;;;;;;5048373;28;19913;-66
2022/01/03 11:33:59;;;;;;;7.25;2.28;;;10.70;99.70;;;;;;5048158;28;20029;-67
2022/01/03 11:36:24;;;;;;;7.85;2.28;;;10.70;99.90;;;;;;5041724;28;20035;-67
2022/01/03 11:38:50;;;;;;;6.05;2.10;;;10.70;99.90;;;;;;5053083;28;20037;-67
2022/01/03 11:41:16;;;;;;;8.57;2.08;;;10.70;99.90;;;;;;5032471;28;20059;-67
2022/01/03 11:43:43;;;;;;;45.42;29.45;;;10.80;99.90;;;;;;5034500;28;20392;-66
2022/01/03 11:46:09;;;;;;;10.23;3.72;;;10.80;99.90;;;;;;5050823;28;20029;-67
2022/01/03 11:48:35;;;;;;;6.32;2.80;;;10.80;99.90;;;;;;5049547;28;20033;-67
2022/01/03 11:51:09;;;;;;;11.13;2.60;;;10.80;99.90;;;;;;5051200;28;20041;-66
2022/01/03 11:53:36;;;;;;;4.70;1.77;;;10.80;99.90;;;;;;5038261;28;20131;-65
2022/01/03 11:56:06;;;;;;;8.65;2.70;;;10.90;99.90;;;;;;5028419;28;20037;-67
2022/01/03 12:04:14;;;;;;;12.38;2.67;;;11.00;99.90;;;;;;5048717;28;20028;-78
2022/01/03 12:06:40;;;;;;;5.82;1.95;;;11.00;99.90;;;;;;5051851;28;20094;-83
2022/01/03 12:09:08;;;;;;;8.68;2.53;;;11.00;99.90;;;;;;5047925;28;20033;-77
2022/01/03 12:11:34;;;;;;;12.40;3.55;;;11.00;99.90;;;;;;5034903;28;20053;-80
2022/01/03 12:14:11;;;;;;;6.40;2.17;;;11.10;99.90;;;;;;5050265;28;20086;-80
2022/01/03 12:17:02;;;;;;;9.98;2.75;;;11.10;99.90;;;;;;5049738;28;20021;-80
2022/01/03 12:19:31;;;;;;;14.38;6.88;;;11.10;99.90;;;;;;5036336;28;20041;-73
2022/01/03 12:21:58;;;;;;;102.37;70.40;;;12.20;99.90;;;;;;5046651;28;20082;-71
2022/01/03 12:24:27;;;;;;;85.28;65.97;;;12.20;99.90;;;;;;5030579;28;20816;-75
2022/01/03 12:27:17;;;;;;;16.83;10.70;;;12.10;98.80;;;;;;5069770;28;20021;-75
2022/01/03 12:29:57;;;;;;;15.43;6.60;;;11.90;99.70;;;;;;5050520;28;20048;-84
2022/01/03 12:32:42;;;;;;;10.85;3.85;;;11.80;99.20;;;;;;5065132;28;20038;-86
2022/01/03 12:35:15;;;;;;;7.68;2.70;;;11.70;99.60;;;;;;5046490;28;20063;-84
2022/01/03 12:37:44;;;;;;;11.73;2.92;;;11.70;99.90;;;;;;5068002;28;20025;-81
2022/01/03 12:40:11;;;;;;;7.20;2.42;;;11.60;99.90;;;;;;5037243;28;20053;-83
2022/01/03 12:51:44;;;;;;;7.22;3.28;;;11.50;99.90;;;;;;5038848;28;20007;-66
2022/01/03 12:54:10;;;;;;;22.17;13.15;;;11.50;99.90;;;;;;5066559;28;20107;-72
2022/01/03 12:56:37;;;;;;;16.67;9.32;;;11.50;99.90;;;;;;5057879;28;20029;-68
2022/01/03 12:59:12;;;;;;;9.85;3.72;;;11.50;99.90;;;;;;5061055;28;20029;-67
2022/01/03 13:01:38;;;;;;;7.90;2.78;;;11.60;99.90;;;;;;5066400;28;20055;-67
2022/01/03 13:04:18;;;;;;;16.20;5.18;;;11.60;99.90;;;;;;5070520;28;20423;-66
2022/01/03 13:06:44;;;;;;;55.60;43.65;;;11.50;99.90;;;;;;5061914;28;20021;-66
2022/01/03 13:09:11;;;;;;;17.02;10.27;;;11.60;99.90;;;;;;5066210;28;20036;-69
2022/01/03 13:11:43;;;;;;;14.95;7.32;;;11.60;99.90;;;;;;5049569;28;20102;-68
2022/01/03 13:14:15;;;;;;;9.70;4.68;;;11.60;99.90;;;;;;5029933;28;20116;-67
2022/01/03 13:16:51;;;;;;;10.70;2.85;;;11.60;99.90;;;;;;5013396;28;20033;-67
2022/01/03 13:19:25;;;;;;;13.77;2.80;;;11.60;99.90;;;;;;5040967;28;20033;-67
2022/01/03 13:22:05;;;;;;;12.10;3.75;;;11.60;99.90;;;;;;5050333;28;20392;-67
2022/01/03 13:24:33;;;;;;;8.57;3.08;;;11.60;99.90;;;;;;5061050;28;20025;-67
2022/01/03 13:27:30;;;;;;;9.07;2.15;;;11.60;99.90;;;;;;5031515;28;20033;-67
2022/01/03 13:30:03;;;;;;;9.00;2.47;;;11.60;99.90;;;;;;5061387;28;20044;-67
2022/01/03 13:32:30;;;;;;;7.72;2.70;;;11.60;99.90;;;;;;5068693;28;20060;-67
2022/01/03 13:34:57;;;;;;;14.32;3.35;;;11.70;99.90;;;;;;5052345;28;20383;-67
2022/01/03 13:37:23;;;;;;;10.15;3.00;;;11.60;99.90;;;;;;5056687;28;20033;-67
2022/01/03 13:39:50;;;;;;;10.02;3.85;;;11.60;99.90;;;;;;5048730;28;20033;-67
2022/01/03 13:42:35;;;;;;;9.00;3.58;;;11.60;99.90;;;;;;5058514;28;20036;-67
2022/01/03 13:45:17;;;;;;;7.32;2.03;;;11.70;99.90;;;;;;5049194;28;20494;-67
2022/01/03 13:50:27;;;;;;;6.78;2.75;;;11.70;99.90;;;;;;5029545;28;20099;-67
2022/01/03 13:52:57;;;;;;;6.65;1.80;;;11.70;99.90;;;;;;5030535;28;20112;-67
2022/01/03 13:55:33;;;;;;;7.57;2.40;;;11.70;99.90;;;;;;5031896;28;20480;-67
2022/01/03 13:58:09;;;;;;;5.68;1.88;;;11.70;99.90;;;;;;5049125;28;20529;-67
2022/01/03 14:00:44;;;;;;;7.45;2.15;;;11.70;99.90;;;;;;5068787;28;20036;-67
2022/01/03 14:03:14;;;;;;;11.40;3.10;;;11.60;99.90;;;;;;5014539;28;20029;-67
2022/01/03 14:05:41;;;;;;;5.63;2.80;;;11.60;99.90;;;;;;5037601;28;20035;-67
2022/01/03 14:08:06;;;;;;;14.50;4.05;;;11.60;99.90;;;;;;5051039;28;20147;-67
2022/01/03 14:10:42;;;;;;;8.38;3.55;;;11.60;99.90;;;;;;5051051;28;20052;-66
2022/01/03 14:13:10;;;;;;;7.75;3.08;;;11.60;99.90;;;;;;5043151;28;20104;-71
2022/01/03 14:15:36;;;;;;;7.75;3.10;;;11.60;99.90;;;;;;5048594;28;20027;-69
2022/01/03 14:18:02;;;;;;;8.20;3.15;;;11.60;99.90;;;;;;5028833;28;20034;-74
2022/01/03 14:20:27;;;;;;;12.57;3.55;;;11.60;99.90;;;;;;5060477;28;20040;-67
2022/01/03 14:22:53;;;;;;;6.45;2.20;;;11.60;99.90;;;;;;5049475;28;20040;-67
2022/01/03 14:25:23;;;;;;;6.60;2.17;;;11.60;99.90;;;;;;5030900;28;20029;-68
2022/01/03 14:27:58;;;;;;;5.50;1.90;;;11.60;99.90;;;;;;5011933;28;20037;-68
2022/01/03 14:30:34;;;;;;;7.13;2.42;;;11.60;99.90;;;;;;5029073;28;20377;-68
2022/01/03 14:33:03;;;;;;;12.93;3.60;;;11.60;99.90;;;;;;5049706;28;20043;-65
2022/01/03 14:35:31;;;;;;;24.63;13.98;;;11.60;99.90;;;;;;5049752;28;20407;-70
2022/01/03 14:38:01;;;;;;;75.38;53.17;;;11.60;99.90;;;;;;5049511;28;20773;-78
2022/01/03 14:40:45;;;;;;;61.15;47.15;;;11.60;99.90;;;;;;5045404;28;20494;-80
2022/01/03 14:43:12;;;;;;;18.98;11.65;;;11.50;99.90;;;;;;5052836;28;20036;-75
2022/01/03 14:45:38;;;;;;;447.48;330.98;;;11.50;99.90;;;;;;5030884;28;20132;-73
2022/01/03 14:48:04;;;;;;;40.78;26.38;;;11.50;99.90;;;;;;5027830;28;20117;-74
2022/01/03 14:50:31;;;;;;;49.08;27.55;;;11.50;99.90;;;;;;5050926;28;20037;-74
2022/01/03 14:52:59;;;;;;;15.10;7.88;;;11.50;99.90;;;;;;5063130;28;20039;-72
2022/01/03 14:55:45;;;;;;;15.52;7.72;;;11.40;99.90;;;;;;5052888;28;20484;-73
2022/01/03 14:58:21;;;;;;;11.38;3.47;;;11.30;99.90;;;;;;5043903;28;20497;-74
2022/01/03 15:00:46;;;;;;;7.75;2.80;;;11.30;99.90;;;;;;5056949;28;20033;-73
2022/01/03 15:03:12;;;;;;;4.60;2.35;;;11.30;99.90;;;;;;5054672;28;20110;-73
2022/01/03 15:05:38;;;;;;;12.77;3.25;;;11.30;99.90;;;;;;5054981;28;20038;-73
2022/01/03 15:08:05;;;;;;;9.27;2.53;;;11.30;99.90;;;;;;5051218;28;20350;-73
2022/01/03 15:10:32;;;;;;;8.30;2.53;;;11.30;99.90;;;;;;5052059;28;20053;-73
2022/01/03 15:13:00;;;;;;;9.15;2.70;;;11.20;99.90;;;;;;5030102;28;20032;-72
2022/01/03 15:15:27;;;;;;;15.55;3.28;;;11.30;99.90;;;;;;5053292;28;20072;-73
2022/01/03 15:17:55;;;;;;;9.40;2.75;;;11.20;99.90;;;;;;5053962;28;20032;-73
2022/01/03 15:20:22;;;;;;;13.70;3.50;;;11.20;99.90;;;;;;5073378;28;20115;-72
2022/01/03 15:22:48;;;;;;;9.50;3.65;;;11.20;99.90;;;;;;5073411;28;20472;-73
2022/01/03 15:25:14;;;;;;;6.20;1.85;;;11.10;99.90;;;;;;5055982;28;20044;-73
2022/01/03 15:27:41;;;;;;;9.15;2.85;;;11.10;99.90;;;;;;5071912;28;20032;-74
2022/01/03 15:30:07;;;;;;;7.25;2.85;;;11.00;99.90;;;;;;5049059;28;20514;-73
2022/01/03 15:32:33;;;;;;;10.57;3.38;;;11.00;99.90;;;;;;5052481;28;20041;-73
2022/01/03 15:34:59;;;;;;;23.60;14.13;;;10.90;99.90;;;;;;5049154;28;20625;-77
2022/01/03 15:37:24;;;;;;;273.02;200.35;;;10.90;99.90;;;;;;5024398;28;20056;-79
2022/01/03 15:39:50;;;;;;;65.53;42.72;;;10.80;99.90;;;;;;5045747;28;20060;-78
2022/01/03 15:42:16;;;;;;;33.05;21.02;;;10.80;99.90;;;;;;5063267;28;20728;-69
2022/01/03 15:44:42;;;;;;;94.85;74.75;;;10.80;99.90;;;;;;5061445;28;20082;-70
2022/01/03 15:47:07;;;;;;;28.17;20.17;;;10.80;99.90;;;;;;5043030;28;20033;-73
2022/01/03 15:49:33;;;;;;;71.72;44.28;;;10.90;99.90;;;;;;5062364;28;20029;-70
2022/01/03 15:51:59;;;;;;;23.95;13.02;;;10.90;99.90;;;;;;5053500;28;20033;-74
2022/01/03 15:54:25;;;;;;;12.75;6.82;;;11.00;99.90;;;;;;5034367;28;20029;-70
2022/01/03 15:56:54;;;;;;;10.02;5.68;;;11.00;99.90;;;;;;5052531;28;20029;-70
2022/01/03 15:59:20;;;;;;;9.80;3.58;;;10.90;99.90;;;;;;5051522;28;20055;-68
2022/01/03 16:01:46;;;;;;;10.13;3.00;;;10.90;99.90;;;;;;5051886;28;20460;-68
2022/01/03 16:04:11;;;;;;;9.10;3.00;;;10.90;99.90;;;;;;5049330;28;20032;-67
2022/01/03 16:06:38;;;;;;;6.65;2.83;;;10.90;99.90;;;;;;5033760;28;20423;-68
2022/01/03 16:09:04;;;;;;;9.50;2.70;;;10.90;99.90;;;;;;5017281;28;20036;-67
2022/01/03 16:11:30;;;;;;;8.45;3.85;;;10.90;99.90;;;;;;5049912;28;20060;-67
2022/01/03 16:13:56;;;;;;;11.15;3.13;;;10.80;99.90;;;;;;5030563;28;20033;-66
2022/01/03 16:16:21;;;;;;;11.07;3.03;;;10.80;99.90;;;;;;5050339;28;20047;-67
2022/01/03 16:18:47;;;;;;;12.15;3.83;;;10.80;99.90;;;;;;5030091;28;20037;-67
2022/01/03 16:21:13;;;;;;;13.35;3.95;;;10.70;99.90;;;;;;5046666;28;20048;-72
2022/01/03 16:23:39;;;;;;;8.48;3.55;;;10.70;99.90;;;;;;5053575;28;20028;-71
2022/01/03 16:26:05;;;;;;;18.15;5.78;;;10.70;99.90;;;;;;5036168;28;20063;-70
2022/01/03 16:28:31;;;;;;;10.20;3.28;;;10.70;99.90;;;;;;5046207;28;20028;-70
2022/01/03 16:30:57;;;;;;;8.75;3.03;;;10.70;99.90;;;;;;5048897;28;20029;-70
2022/01/03 16:33:23;;;;;;;5.25;1.88;;;10.70;99.90;;;;;;5049431;28;20086;-70
2022/01/03 16:35:49;;;;;;;11.05;3.75;;;10.70;99.90;;;;;;5051135;28;20102;-69
2022/01/03 16:38:15;;;;;;;10.30;3.60;;;10.60;99.90;;;;;;5060596;28;20472;-68
2022/01/03 16:40:41;;;;;;;8.90;2.90;;;10.60;99.90;;;;;;5050751;28;20033;-69
2022/01/03 16:43:07;;;;;;;6.75;3.00;;;10.60;99.90;;;;;;5050420;28;20037;-70
2022/01/03 16:45:33;;;;;;;8.50;2.65;;;10.60;99.90;;;;;;5039041;28;20037;-70
2022/01/03 16:47:58;;;;;;;7.28;3.53;;;10.60;99.90;;;;;;5039233;28;20615;-67
2022/01/03 16:50:24;;;;;;;8.30;1.98;;;10.60;99.90;;;;;;5049354;28;20048;-71
2022/01/03 16:52:50;;;;;;;11.88;3.33;;;10.60;99.90;;;;;;5016908;28;20036;-70
2022/01/03 16:55:16;;;;;;;9.00;3.13;;;10.60;99.90;;;;;;5048101;28;20028;-70
2022/01/03 16:57:43;;;;;;;11.50;3.35;;;10.60;99.90;;;;;;5024621;28;20491;-75
2022/01/03 17:00:10;;;;;;;46.40;32.78;;;10.60;99.90;;;;;;5040287;28;20411;-71
2022/01/03 17:02:39;;;;;;;16.75;7.93;;;10.50;99.90;;;;;;5061628;28;20424;-73
2022/01/03 17:05:06;;;;;;;8.18;4.88;;;10.60;99.90;;;;;;5056498;28;20540;-72
2022/01/03 17:07:32;;;;;;;25.20;13.95;;;10.50;99.90;;;;;;5064117;28;20068;-74
2022/01/03 17:09:57;;;;;;;16.10;5.90;;;10.50;99.90;;;;;;5029921;28;20144;-67
2022/01/03 17:12:24;;;;;;;11.40;6.38;;;10.50;99.90;;;;;;5056756;28;20040;-79
2022/01/03 17:14:50;;;;;;;309.38;215.90;;;10.50;99.90;;;;;;5044943;28;20029;-75
2022/01/03 17:17:18;;;;;;;77.28;56.60;;;10.50;99.90;;;;;;5052904;28;20037;-71
2022/01/03 17:19:44;;;;;;;85.15;52.55;;;10.50;99.90;;;;;;5046456;28;20480;-73
2022/01/03 17:22:10;;;;;;;29.08;13.50;;;10.50;99.90;;;;;;5056905;28;20029;-71
2022/01/03 17:24:36;;;;;;;14.20;5.90;;;10.50;99.90;;;;;;5051898;28;20171;-72
2022/01/03 17:27:02;;;;;;;54.75;28.88;;;10.50;99.90;;;;;;5041366;28;20158;-71
2022/01/03 17:29:28;;;;;;;30.75;15.68;;;10.50;99.90;;;;;;5051159;28;20066;-70
2022/01/03 17:31:54;;;;;;;20.05;8.68;;;10.50;99.90;;;;;;5019188;28;20153;-72
2022/01/03 17:34:19;;;;;;;15.95;4.70;;;10.50;99.90;;;;;;5031762;28;20078;-73
2022/01/03 17:36:45;;;;;;;16.13;4.63;;;10.50;99.90;;;;;;5025404;28;20036;-70
2022/01/03 17:39:11;;;;;;;18.63;8.75;;;10.50;99.90;;;;;;5036574;28;20028;-69
2022/01/03 17:41:36;;;;;;;11.95;4.65;;;10.40;99.90;;;;;;5050563;28;20025;-71
2022/01/03 17:44:02;;;;;;;15.18;4.50;;;10.40;99.90;;;;;;5047778;28;20434;-72
2022/01/03 17:46:28;;;;;;;11.82;3.30;;;10.40;99.90;;;;;;5060964;28;20060;-70
2022/01/03 17:48:54;;;;;;;7.00;2.35;;;10.40;99.90;;;;;;5052117;28;20081;-72
2022/01/03 17:51:20;;;;;;;10.88;3.47;;;10.40;99.90;;;;;;5047867;28;20079;-71
2022/01/03 17:53:46;;;;;;;14.25;4.45;;;10.40;99.90;;;;;;5048756;28;20036;-66
2022/01/03 17:56:11;;;;;;;13.57;4.72;;;10.40;99.90;;;;;;5031775;28;20072;-67
2022/01/03 17:58:39;;;;;;;14.43;5.03;;;10.40;99.90;;;;;;5049297;28;20065;-71
2022/01/03 18:01:05;;;;;;;8.18;3.30;;;10.30;99.90;;;;;;5048465;28;20035;-69
2022/01/03 18:03:31;;;;;;;17.15;5.38;;;10.40;99.90;;;;;;5053160;28;20033;-69
2022/01/03 18:05:56;;;;;;;12.57;2.92;;;10.40;99.90;;;;;;5020439;28;20547;-71
2022/01/03 18:08:22;;;;;;;8.60;3.55;;;10.30;99.90;;;;;;5047522;28;20087;-71
2022/01/03 18:10:48;;;;;;;13.60;3.88;;;10.30;99.90;;;;;;5054850;28;20060;-67
2022/01/03 18:13:14;;;;;;;11.93;4.07;;;10.30;99.90;;;;;;5045613;28;20024;-76
2022/01/03 18:15:40;;;;;;;8.50;3.47;;;10.30;99.90;;;;;;5030197;28;20045;-69
2022/01/03 18:18:08;;;;;;;56.72;36.15;;;10.30;99.90;;;;;;5057103;28;20426;-76
2022/01/03 18:20:35;;;;;;;364.45;274.83;;;10.30;99.90;;;;;;5048727;28;20033;-76
2022/01/03 18:23:01;;;;;;;42.63;27.67;;;10.30;99.90;;;;;;5044863;28;20086;-75
2022/01/03 18:25:27;;;;;;;27.38;18.35;;;10.30;99.90;;;;;;5036779;28;20034;-80
2022/01/03 18:27:53;;;;;;;15.00;8.75;;;10.30;99.90;;;;;;5029518;28;20486;-75
2022/01/03 18:30:19;;;;;;;14.38;5.95;;;10.30;99.90;;;;;;5047954;28;20120;-79
2022/01/03 18:32:45;;;;;;;15.80;5.15;;;10.30;99.90;;;;;;5067342;28;20056;-67
2022/01/03 18:35:11;;;;;;;21.27;4.82;;;10.30;99.90;;;;;;5055825;28;20480;-74
2022/01/03 18:37:37;;;;;;;11.50;4.40;;;10.30;99.90;;;;;;5048258;28;20025;-68
2022/01/03 18:40:05;;;;;;;14.90;5.57;;;10.30;99.90;;;;;;5053379;28;20029;-68
2022/01/03 18:42:31;;;;;;;10.32;3.70;;;10.30;99.90;;;;;;5069431;28;20487;-72
2022/01/03 18:44:57;;;;;;;13.05;3.83;;;10.20;99.90;;;;;;5060300;28;20045;-67
2022/01/03 18:47:24;;;;;;;19.52;6.35;;;10.30;99.90;;;;;;5060712;28;20053;-68
2022/01/03 18:49:50;;;;;;;12.30;3.70;;;10.20;99.90;;;;;;5036641;28;20033;-69
2022/01/03 18:52:16;;;;;;;16.20;4.18;;;10.30;99.90;;;;;;5035205;28;20073;-68
2022/01/03 18:54:42;;;;;;;15.45;5.05;;;10.20;99.90;;;;;;5054651;28;20069;-68
2022/01/03 18:57:07;;;;;;;15.50;4.32;;;10.30;99.90;;;;;;5051666;28;20136;-75
2022/01/03 18:59:33;;;;;;;17.35;4.40;;;10.20;99.90;;;;;;5063494;28;20052;-78
2022/01/03 19:01:59;;;;;;;10.88;4.03;;;10.20;99.90;;;;;;5059041;28;20471;-76
2022/01/03 19:04:24;;;;;;;172.98;108.13;;;10.20;99.90;;;;;;5057297;28;20037;-74
2022/01/03 19:06:50;;;;;;;20.58;9.13;;;10.20;99.90;;;;;;5055608;28;20426;-78
2022/01/03 19:09:16;;;;;;;18.63;8.98;;;10.20;99.90;;;;;;5051461;28;20079;-78
2022/01/03 19:11:42;;;;;;;46.65;28.55;;;10.20;99.90;;;;;;5052670;28;20052;-74
2022/01/03 19:14:08;;;;;;;18.65;8.90;;;10.20;99.90;;;;;;5052768;28;20476;-71
2022/01/03 19:16:33;;;;;;;11.52;4.57;;;10.20;99.90;;;;;;5055665;28;20059;-75
2022/01/03 19:18:59;;;;;;;11.68;4.93;;;10.30;99.90;;;;;;5052727;28;20037;-74
2022/01/03 19:21:25;;;;;;;18.38;5.03;;;10.30;99.90;;;;;;5053731;28;20539;-74
2022/01/03 19:23:51;;;;;;;12.52;4.32;;;10.30;99.90;;;;;;5057636;28;20534;-74
2022/01/03 19:26:19;;;;;;;14.07;3.90;;;10.30;99.90;;;;;;5063007;28;20040;-75
2022/01/03 19:28:48;;;;;;;14.05;3.75;;;10.30;99.90;;;;;;5039890;28;20048;-74
2022/01/03 19:31:14;;;;;;;14.57;5.10;;;10.30;99.90;;;;;;5056875;28;20029;-74
2022/01/03 19:39:05;;;;;;;11.45;3.25;;;10.30;99.90;;;;;;5064693;28;20789;-75
2022/01/03 19:41:31;;;;;;;16.15;3.90;;;10.30;99.90;;;;;;5072024;28;20039;-74
2022/01/03 19:43:57;;;;;;;16.45;5.03;;;10.30;99.90;;;;;;5062021;28;20392;-74
2022/01/03 19:46:24;;;;;;;13.40;3.92;;;10.30;99.90;;;;;;5071162;28;20024;-74
2022/01/03 19:48:51;;;;;;;9.70;3.78;;;10.30;99.90;;;;;;5036338;28;20430;-74
2022/01/03 19:51:17;;;;;;;17.85;4.55;;;10.20;99.90;;;;;;5056316;28;20035;-74
2022/01/03 19:53:44;;;;;;;12.60;3.72;;;10.20;99.90;;;;;;5054905;28;20456;-74
2022/01/03 19:56:09;;;;;;;14.32;4.55;;;10.30;99.90;;;;;;5059035;28;20116;-74
2022/01/03 19:58:35;;;;;;;12.95;4.55;;;10.20;99.90;;;;;;5067949;28;20448;-74
2022/01/03 20:01:02;;;;;;;10.07;3.67;;;10.20;99.90;;;;;;5073535;28;20040;-74
2022/01/03 20:03:28;;;;;;;7.88;3.45;;;10.20;99.90;;;;;;5046918;28;20067;-75
2022/01/03 20:05:54;;;;;;;8.70;3.33;;;10.30;99.90;;;;;;5059109;28;20552;-75
2022/01/03 20:08:21;;;;;;;14.00;4.03;;;10.20;99.90;;;;;;5072356;28;20028;-74
2022/01/03 20:10:49;;;;;;;12.15;4.32;;;10.30;99.90;;;;;;5068751;28;20045;-74
2022/01/03 20:13:16;;;;;;;15.02;5.07;;;10.30;99.90;;;;;;5035497;28;20581;-74
2022/01/03 20:15:41;;;;;;;6.78;3.00;;;10.20;99.90;;;;;;5044825;28;20039;-74
2022/01/03 20:18:08;;;;;;;12.88;3.92;;;10.30;99.90;;;;;;5049957;28;20033;-74
2022/01/03 20:20:34;;;;;;;8.55;3.10;;;10.30;99.90;;;;;;5052246;28;20116;-74
2022/01/03 20:23:01;;;;;;;18.38;5.50;;;10.20;99.90;;;;;;5052043;28;20099;-74
2022/01/03 20:25:27;;;;;;;16.55;4.45;;;10.20;99.90;;;;;;5057656;28;20021;-74
2022/01/03 20:27:52;;;;;;;14.25;4.03;;;10.20;99.90;;;;;;5060433;28;20377;-75
2022/01/03 20:30:18;;;;;;;15.02;4.18;;;10.20;99.90;;;;;;5057320;28;20464;-67
2022/01/03 20:32:44;;;;;;;78.82;45.95;;;10.20;99.90;;;;;;5055091;28;20154;-71
2022/01/03 20:35:10;;;;;;;19.02;10.40;;;10.20;99.90;;;;;;5053864;28;20442;-74
2022/01/03 20:37:36;;;;;;;14.85;5.30;;;10.20;99.90;;;;;;5051889;28;20037;-72
2022/01/03 20:40:06;;;;;;;15.40;4.35;;;10.20;99.90;;;;;;5065557;28;20399;-75
2022/01/03 20:42:32;;;;;;;13.15;4.50;;;10.20;99.90;;;;;;5030736;28;20481;-75
2022/01/03 20:44:58;;;;;;;17.88;4.25;;;10.20;99.90;;;;;;5063611;28;20040;-74
2022/01/03 20:47:23;;;;;;;12.40;4.70;;;10.20;99.90;;;;;;5068012;28;20029;-75
2022/01/03 20:49:50;;;;;;;14.38;4.95;;;10.20;99.90;;;;;;5062091;28;20089;-75
2022/01/03 20:52:16;;;;;;;12.35;4.85;;;10.20;99.90;;;;;;5070676;28;20033;-74
2022/01/03 20:54:44;;;;;;;15.80;4.25;;;10.20;99.90;;;;;;5061331;28;20036;-75
2022/01/03 20:57:10;;;;;;;10.43;4.40;;;10.20;99.90;;;;;;5052702;28;21679;-76
2022/01/03 20:59:36;;;;;;;16.70;5.93;;;10.20;99.90;;;;;;5054888;28;20047;-72
2022/01/03 21:02:01;;;;;;;20.52;8.23;;;10.20;99.90;;;;;;5068925;28;20566;-73
2022/01/03 21:04:27;;;;;;;13.63;6.22;;;10.20;99.90;;;;;;5053525;28;20124;-72
2022/01/03 21:06:53;;;;;;;15.18;4.65;;;10.20;99.90;;;;;;5055255;28;20025;-73
2022/01/03 21:09:18;;;;;;;9.85;3.78;;;10.20;99.90;;;;;;5053409;28;20034;-73
2022/01/03 21:11:44;;;;;;;7.88;3.17;;;10.20;99.90;;;;;;5056585;28;20107;-72
2022/01/03 21:14:10;;;;;;;11.50;3.78;;;10.20;99.90;;;;;;5043526;28;20029;-74
2022/01/03 21:16:36;;;;;;;9.77;2.85;;;10.20;99.90;;;;;;5040737;28;20032;-75
2022/01/03 21:19:02;;;;;;;170.95;137.27;;;10.20;99.90;;;;;;5042783;28;20037;-73
2022/01/03 21:21:27;;;;;;;65.10;52.60;;;10.20;99.90;;;;;;5046668;28;20033;-72
2022/01/03 21:23:53;;;;;;;25.77;16.13;;;10.20;99.90;;;;;;5052491;28;20467;-72
2022/01/03 21:26:19;;;;;;;13.57;8.68;;;10.20;99.90;;;;;;5034276;28;20373;-71
2022/01/03 21:28:44;;;;;;;10.15;5.68;;;10.20;99.90;;;;;;5052704;28;20025;-72
2022/01/03 21:31:10;;;;;;;15.38;4.82;;;10.20;99.90;;;;;;5052198;28;20116;-71
2022/01/03 21:33:36;;;;;;;12.73;3.50;;;10.10;99.90;;;;;;5051014;28;20033;-72
2022/01/03 21:36:03;;;;;;;6.35;2.72;;;10.10;99.90;;;;;;5052778;28;20029;-71
2022/01/03 21:38:28;;;;;;;18.20;4.45;;;10.10;99.90;;;;;;5049028;28;20037;-73
2022/01/03 21:40:56;;;;;;;14.05;3.92;;;10.10;99.90;;;;;;5050088;28;20048;-71
2022/01/03 21:43:23;;;;;;;9.75;3.58;;;10.10;99.90;;;;;;5047663;28;20025;-72
2022/01/03 21:45:49;;;;;;;10.15;3.50;;;10.10;99.90;;;;;;5049867;28;20033;-73
2022/01/03 21:48:15;;;;;;;12.90;3.63;;;10.10;99.90;;;;;;5051316;28;20124;-73
2022/01/03 21:50:41;;;;;;;8.55;3.30;;;10.10;99.90;;;;;;5045649;28;20158;-72
2022/01/03 21:53:07;;;;;;;11.38;3.60;;;10.10;99.90;;;;;;5050918;28;20488;-74
2022/01/03 21:55:32;;;;;;;16.92;3.90;;;10.10;99.90;;;;;;5050843;28;20029;-72
2022/01/03 21:57:58;;;;;;;11.35;3.65;;;10.10;99.90;;;;;;5061177;28;20037;-72
2022/01/03 22:00:24;;;;;;;8.73;3.50;;;10.00;99.90;;;;;;5036761;28;20073;-73
2022/01/03 22:02:50;;;;;;;10.18;4.00;;;10.00;99.90;;;;;;5029527;28;20030;-72
2022/01/03 22:05:16;;;;;;;11.68;4.45;;;10.00;99.90;;;;;;5036996;28;20041;-72
2022/01/03 22:07:48;;;;;;;8.57;3.85;;;10.00;99.90;;;;;;5065955;28;20028;-72
2022/01/03 22:10:14;;;;;;;12.25;3.75;;;10.00;99.90;;;;;;5065620;28;20036;-71
2022/01/03 22:12:40;;;;;;;8.32;2.83;;;10.10;99.90;;;;;;5038440;28;20073;-72
2022/01/03 22:15:06;;;;;;;13.57;4.57;;;10.10;99.90;;;;;;5052426;28;20029;-72
2022/01/03 22:17:32;;;;;;;9.15;3.40;;;10.00;99.90;;;;;;5052113;28;20039;-71
2022/01/03 22:19:58;;;;;;;16.05;4.65;;;10.00;99.90;;;;;;5050176;28;20729;-72
2022/01/03 22:22:24;;;;;;;13.00;3.40;;;10.10;99.90;;;;;;5054243;28;20036;-71
2022/01/03 22:24:49;;;;;;;9.32;2.47;;;10.00;99.90;;;;;;5061551;28;20411;-71
2022/01/03 22:27:15;;;;;;;12.27;3.47;;;10.10;99.90;;;;;;5050141;28;20456;-71
2022/01/03 22:29:42;;;;;;;6.28;2.75;;;10.10;99.90;;;;;;5030513;28;20361;-72
2022/01/03 22:32:08;;;;;;;10.57;3.38;;;10.10;99.90;;;;;;5026407;28;20033;-74
2022/01/03 22:34:33;;;;;;;12.65;3.17;;;10.10;99.90;;;;;;5013151;28;20116;-72
2022/01/03 22:36:59;;;;;;;11.25;3.10;;;10.10;99.90;;;;;;5019065;28;20059;-71
2022/01/03 22:39:25;;;;;;;11.85;3.33;;;10.10;99.90;;;;;;5016185;28;20112;-72
2022/01/03 22:41:54;;;;;;;9.98;3.25;;;10.10;99.90;;;;;;5035626;28;20037;-72
2022/01/03 22:44:19;;;;;;;10.82;4.18;;;10.10;99.90;;;;;;5049471;28;20480;-71
2022/01/03 22:46:45;;;;;;;10.27;2.65;;;10.10;99.90;;;;;;5033170;28;20059;-72
2022/01/03 22:49:11;;;;;;;6.80;2.90;;;10.10;99.90;;;;;;5045046;28;20415;-72
2022/01/03 22:51:37;;;;;;;10.02;2.83;;;10.10;99.90;;;;;;5053302;28;20428;-73
2022/01/03 22:54:05;;;;;;;11.95;2.88;;;10.10;99.90;;;;;;5064088;28;20033;-72
2022/01/03 22:56:31;;;;;;;8.50;2.78;;;10.10;99.90;;;;;;5064432;28;20060;-72
2022/01/03 22:58:56;;;;;;;12.40;3.00;;;10.10;99.90;;;;;;5056358;28;20056;-73
2022/01/03 23:01:22;;;;;;;10.57;2.55;;;10.00;99.90;;;;;;5068836;28;20040;-72
2022/01/03 23:03:48;;;;;;;7.10;2.65;;;10.00;99.90;;;;;;5069791;28;20058;-73
2022/01/03 23:06:17;;;;;;;7.60;3.55;;;10.10;99.90;;;;;;5065505;28;20033;-72